createdAt,value
2022-12-09T00:01:48.580Z,95257.00
2022-12-09T00:05:53.172Z,95255.00
2022-12-09T00:10:29.930Z,95263.00
2022-12-09T00:14:32.952Z,95262.00
2022-12-09T00:18:37.073Z,95256.00
2022-12-09T00:22:41.547Z,95255.00
2022-12-09T00:26:45.179Z,95251.00
2022-12-09T00:31:21.733Z,95247.00
2022-12-09T00:35:25.175Z,95251.00
2022-12-09T00:39:29.966Z,95246.00
2022-12-09T00:43:33.529Z,95246.00
2022-12-09T00:48:07.807Z,95250.00
2022-12-09T00:52:10.901Z,95251.00
2022-12-09T00:56:15.917Z,95245.00
2022-12-09T01:00:49.612Z,95248.00
2022-12-09T01:04:53.387Z,95248.00
2022-12-09T01:09:30.298Z,95251.00
2022-12-09T01:13:34.985Z,95247.00
2022-12-09T01:17:38.737Z,95252.00
2022-12-09T01:21:41.936Z,95243.00
2022-12-09T01:25:44.975Z,95241.00
2022-12-09T01:30:23.224Z,95227.00
2022-12-09T01:34:26.787Z,95229.00
2022-12-09T01:38:30.012Z,95223.00
2022-12-09T01:42:35.574Z,95226.00
2022-12-09T01:46:40.224Z,95214.00
2022-12-09T01:50:47.430Z,95219.00
2022-12-09T01:55:20.999Z,95213.00
2022-12-09T01:59:26.012Z,95217.00
2022-12-09T02:03:30.751Z,95207.00
2022-12-09T02:07:40.853Z,95201.00
2022-12-09T02:11:57.782Z,95190.00
2022-12-09T02:16:06.769Z,95181.00
2022-12-09T02:20:20.498Z,95174.00
2022-12-09T02:24:29.604Z,95161.00
2022-12-09T02:28:55.796Z,95158.00
2022-12-09T02:33:32.017Z,95145.00
2022-12-09T02:37:41.820Z,95157.00
2022-12-09T02:41:48.369Z,95154.00
2022-12-09T02:45:52.941Z,95159.00
2022-12-09T02:50:28.639Z,95166.00
2022-12-09T02:54:35.707Z,95160.00
2022-12-09T02:58:38.772Z,95165.00
2022-12-09T03:02:45.750Z,95145.00
2022-12-09T03:06:53.691Z,95151.00
2022-12-09T03:11:02.287Z,95147.00
2022-12-09T03:15:11.350Z,95140.00
2022-12-09T03:19:21.584Z,95140.00
2022-12-09T03:23:29.043Z,95135.00
2022-12-09T03:27:38.555Z,95124.00
2022-12-09T03:31:42.277Z,95122.00
2022-12-09T03:35:50.331Z,95125.00
2022-12-09T03:39:55.386Z,95140.00
2022-12-09T03:44:08.541Z,95123.00
2022-12-09T03:48:13.209Z,95131.00
2022-12-09T03:52:21.785Z,95132.00
2022-12-09T03:56:28.354Z,95127.00
2022-12-09T04:00:38.098Z,95121.00
2022-12-09T04:04:42.738Z,95120.00
2022-12-09T04:08:46.451Z,95112.00
2022-12-09T04:12:49.545Z,95116.00
2022-12-09T04:16:54.280Z,95122.00
2022-12-09T04:20:57.720Z,95123.00
2022-12-09T04:25:00.895Z,95109.00
2022-12-09T04:29:04.037Z,95101.00
2022-12-09T04:33:08.653Z,95100.00
2022-12-09T04:37:13.143Z,95095.00
2022-12-09T04:41:16.955Z,95112.00
2022-12-09T04:45:20.270Z,95102.00
2022-12-09T04:49:25.010Z,95098.00
2022-12-09T04:53:28.653Z,95080.00
2022-12-09T04:57:31.841Z,95063.00
2022-12-09T05:01:35.618Z,95061.00
2022-12-09T05:05:44.636Z,95061.00
2022-12-09T05:09:48.718Z,95066.00
2022-12-09T05:13:52.518Z,95064.00
2022-12-09T05:17:55.819Z,95062.00
2022-12-09T05:22:01.152Z,95057.00
2022-12-09T05:26:05.192Z,95055.00
2022-12-09T05:30:10.160Z,95045.00
2022-12-09T05:34:13.743Z,95039.00
2022-12-09T05:38:26.359Z,95041.00
2022-12-09T05:42:29.481Z,95033.00
2022-12-09T05:46:32.980Z,95034.00
2022-12-09T05:50:36.622Z,95030.00
2022-12-09T05:54:41.087Z,95028.00
2022-12-09T05:58:46.317Z,95017.00
2022-12-09T06:02:49.590Z,95018.00
2022-12-09T06:06:53.592Z,95012.00
2022-12-09T06:10:58.394Z,95013.00
2022-12-09T06:15:02.078Z,95012.00
2022-12-09T06:19:06.147Z,95015.00
2022-12-09T06:23:10.258Z,95013.00
2022-12-09T06:27:15.176Z,95012.00
2022-12-09T06:31:18.951Z,95004.00
2022-12-09T06:35:22.825Z,95006.00
2022-12-09T06:39:26.251Z,95007.00
2022-12-09T06:43:31.188Z,94998.00
2022-12-09T06:47:34.613Z,95002.00
2022-12-09T06:51:38.105Z,95007.00
2022-12-09T06:55:41.570Z,95003.00
2022-12-09T06:59:46.339Z,94999.00
2022-12-09T07:03:51.429Z,94997.00
2022-12-09T07:07:55.439Z,95002.00
2022-12-09T07:11:58.751Z,95000.00
2022-12-09T07:16:03.792Z,94998.00
2022-12-09T07:20:08.642Z,95004.00
2022-12-09T07:24:13.336Z,95001.00
2022-12-09T07:28:16.812Z,95006.00
2022-12-09T07:32:21.405Z,95007.00
2022-12-09T07:36:26.511Z,95013.00
2022-12-09T07:40:29.667Z,95006.00
2022-12-09T07:44:33.138Z,95000.00
2022-12-09T07:48:37.826Z,94998.00
2022-12-09T07:52:41.575Z,95010.00
2022-12-09T07:56:45.659Z,94986.00
2022-12-09T08:00:49.128Z,94990.00
2022-12-09T08:04:54.286Z,94982.00
2022-12-09T08:08:59.655Z,94976.00
2022-12-09T08:13:03.146Z,94971.00
2022-12-09T08:17:06.526Z,94971.00
2022-12-09T08:21:13.212Z,94966.00
2022-12-09T08:25:16.806Z,94963.00
2022-12-09T08:29:20.790Z,94953.00
2022-12-09T08:33:24.514Z,94950.00
2022-12-09T08:37:29.252Z,94954.00
2022-12-09T08:41:38.462Z,94955.00
2022-12-09T08:45:43.412Z,94949.00
2022-12-09T08:49:46.833Z,94945.00
2022-12-09T08:53:51.261Z,94949.00
2022-12-09T08:57:54.723Z,94938.00
2022-12-09T09:01:57.945Z,94933.00
2022-12-09T09:06:10.527Z,94925.00
2022-12-09T09:10:16.360Z,94930.00
2022-12-09T09:14:50.454Z,94934.00
2022-12-09T09:19:27.861Z,94924.00
2022-12-09T09:23:31.383Z,94927.00
2022-12-09T09:27:37.347Z,94924.00
2022-12-09T09:32:11.638Z,94917.00
2022-12-09T09:36:45.648Z,94922.00
2022-12-09T09:41:22.788Z,94919.00
2022-12-09T09:45:59.669Z,94898.00
2022-12-09T09:50:37.000Z,94898.00
2022-12-09T09:55:11.106Z,94906.00
2022-12-09T09:59:51.635Z,94888.00
2022-12-09T10:09:18.943Z,94875.00
2022-12-09T10:13:50.532Z,94872.00
2022-12-09T10:18:22.925Z,94872.00
2022-12-09T10:23:00.092Z,94867.00
2022-12-09T10:27:38.192Z,94878.00
2022-12-09T10:32:08.948Z,94879.00
2022-12-09T10:36:27.748Z,94873.00
2022-12-09T10:40:57.952Z,94864.00
2022-12-09T10:45:45.702Z,94872.00
2022-12-09T10:50:02.988Z,94873.00
2022-12-09T10:54:40.319Z,94861.00
2022-12-09T10:59:19.729Z,94860.00
2022-12-09T11:03:54.783Z,94850.00
2022-12-09T11:08:33.522Z,94847.00
2022-12-09T11:13:09.851Z,94839.00
2022-12-09T11:17:43.914Z,94830.00
2022-12-09T11:22:24.228Z,94822.00
2022-12-09T11:26:35.841Z,94822.00
2022-12-09T11:30:57.556Z,94817.00
2022-12-09T11:35:41.836Z,94796.00
2022-12-09T11:39:50.646Z,94789.00
2022-12-09T11:43:57.955Z,94791.00
2022-12-09T11:48:34.982Z,94783.00
2022-12-09T11:53:16.282Z,94778.00
2022-12-09T11:57:46.518Z,94787.00
2022-12-09T12:01:55.521Z,94788.00
2022-12-09T12:06:01.522Z,94788.00
2022-12-09T12:10:16.286Z,94782.00
2022-12-09T12:14:24.039Z,94786.00
2022-12-09T12:18:34.006Z,94784.00
2022-12-09T12:23:07.498Z,94783.00
2022-12-09T12:27:24.677Z,94775.00
2022-12-09T12:31:41.579Z,94765.00
2022-12-09T12:36:12.856Z,94746.00
2022-12-09T12:40:40.860Z,94748.00
2022-12-09T12:45:36.642Z,94731.00
2022-12-09T12:50:03.536Z,94730.00
2022-12-09T12:54:16.999Z,94730.00
2022-12-09T12:58:34.188Z,94750.00
2022-12-09T13:02:45.702Z,94755.00
2022-12-09T13:07:43.713Z,94752.00
2022-12-09T13:12:00.218Z,94763.00
2022-12-09T13:16:27.708Z,94759.00
2022-12-09T13:20:36.163Z,94747.00
2022-12-09T13:24:45.092Z,94733.00
2022-12-09T13:28:56.153Z,94722.00
2022-12-09T13:33:36.370Z,94726.00
2022-12-09T13:37:57.917Z,94728.00
2022-12-09T13:42:18.396Z,94726.00
2022-12-09T13:46:25.292Z,94726.00
2022-12-09T13:50:33.420Z,94733.00
2022-12-09T13:54:46.301Z,94741.00
2022-12-09T13:59:11.946Z,94733.00
2022-12-09T14:03:28.459Z,94743.00
2022-12-09T14:07:36.918Z,94737.00
2022-12-09T14:11:47.511Z,94731.00
2022-12-09T14:16:15.075Z,94733.00
2022-12-09T14:20:31.784Z,94743.00
2022-12-09T14:24:36.741Z,94753.00
2022-12-09T14:28:54.062Z,94742.00
2022-12-09T14:32:58.519Z,94739.00
2022-12-09T14:37:38.780Z,94733.00
2022-12-09T14:41:50.438Z,94736.00
2022-12-09T14:45:58.029Z,94742.00
2022-12-09T14:50:08.899Z,94753.00
2022-12-09T14:54:19.901Z,94760.00
2022-12-09T14:58:24.490Z,94763.00
2022-12-09T15:03:30.818Z,94756.00
2022-12-09T15:07:22.978Z,94757.00
2022-12-09T15:11:31.511Z,94745.00
2022-12-09T15:15:37.146Z,94745.00
2022-12-09T15:20:21.338Z,94752.00
2022-12-09T15:24:50.602Z,94748.00
2022-12-09T15:28:57.345Z,94757.00
2022-12-09T15:33:00.810Z,94751.00
2022-12-09T15:37:10.047Z,94757.00
2022-12-09T15:42:01.369Z,94774.00
2022-12-09T15:46:06.771Z,94779.00
2022-12-09T15:50:18.429Z,94781.00
2022-12-09T15:54:26.407Z,94779.00
2022-12-09T15:58:35.218Z,94767.00
2022-12-09T16:03:06.049Z,94760.00
2022-12-09T16:07:12.904Z,94768.00
2022-12-09T16:11:36.180Z,94767.00
2022-12-09T16:15:51.409Z,94765.00
2022-12-09T16:19:54.990Z,94770.00
2022-12-09T16:24:11.434Z,94770.00
2022-12-09T16:28:21.533Z,94770.00
2022-12-09T16:32:51.558Z,94772.00
2022-12-09T16:36:56.238Z,94775.00
2022-12-09T16:41:11.507Z,94779.00
2022-12-09T16:45:37.083Z,94783.00
2022-12-09T16:49:41.299Z,94781.00
2022-12-09T16:53:46.098Z,94779.00
2022-12-09T16:57:51.911Z,94791.00
2022-12-09T17:01:55.551Z,94777.00
2022-12-09T17:05:58.720Z,94779.00
2022-12-09T17:10:01.736Z,94785.00
2022-12-09T17:14:39.908Z,94787.00
2022-12-09T17:18:42.939Z,94791.00
2022-12-09T17:22:46.017Z,94796.00
2022-12-09T17:26:49.045Z,94805.00
2022-12-09T17:30:53.461Z,94803.00
2022-12-09T17:34:56.571Z,94791.00
2022-12-09T17:39:02.515Z,94799.00
2022-12-09T17:43:05.617Z,94808.00
2022-12-09T17:47:10.024Z,94811.00
2022-12-09T17:51:14.999Z,94820.00
2022-12-09T17:55:18.097Z,94827.00
2022-12-09T17:59:21.086Z,94828.00
2022-12-09T18:03:53.824Z,94824.00
2022-12-09T18:07:48.776Z,94830.00
2022-12-09T18:11:52.695Z,94828.00
2022-12-09T18:15:55.702Z,94841.00
2022-12-09T18:20:00.203Z,94829.00
2022-12-09T18:24:03.246Z,94829.00
2022-12-09T18:28:06.629Z,94841.00
2022-12-09T18:32:40.431Z,94830.00
2022-12-09T18:36:45.075Z,94834.00
2022-12-09T18:41:02.070Z,94842.00
2022-12-09T18:45:05.591Z,94846.00
2022-12-09T18:49:11.734Z,94858.00
2022-12-09T18:53:16.568Z,94858.00
2022-12-09T18:57:19.640Z,94852.00
2022-12-09T19:01:25.773Z,94840.00
2022-12-09T19:05:28.893Z,94848.00
2022-12-09T19:09:34.960Z,94852.00
2022-12-09T19:14:09.179Z,94861.00
2022-12-09T19:18:12.332Z,94873.00
2022-12-09T19:22:15.425Z,94877.00
2022-12-09T19:26:22.238Z,94886.00
2022-12-09T19:30:25.297Z,94890.00
2022-12-09T19:34:30.407Z,94886.00
2022-12-09T19:38:33.415Z,94885.00
2022-12-09T19:42:39.843Z,94888.00
2022-12-09T19:46:44.217Z,94890.00
2022-12-09T19:50:47.630Z,94892.00
2022-12-09T19:54:50.667Z,94886.00
2022-12-09T19:58:56.042Z,94895.00
2022-12-09T20:03:00.199Z,94893.00
2022-12-09T20:07:07.631Z,94904.00
2022-12-09T20:11:13.863Z,94908.00
2022-12-09T20:15:18.496Z,94922.00
2022-12-09T20:19:21.546Z,94903.00
2022-12-09T20:23:24.577Z,94900.00
2022-12-09T20:27:27.687Z,94891.00
2022-12-09T20:31:33.710Z,94893.00
2022-12-09T20:35:37.778Z,94893.00
2022-12-09T20:40:14.719Z,94892.00
2022-12-09T20:44:20.079Z,94908.00
2022-12-09T20:48:24.497Z,94903.00
2022-12-09T20:52:27.660Z,94903.00
2022-12-09T20:56:31.253Z,94893.00
2022-12-09T21:00:34.254Z,94894.00
2022-12-09T21:04:38.957Z,94903.00
2022-12-09T21:09:18.820Z,94907.00
2022-12-09T21:13:23.290Z,94915.00
2022-12-09T21:17:26.415Z,94921.00
2022-12-09T21:21:33.631Z,94912.00
2022-12-09T21:25:36.929Z,94918.00
2022-12-09T21:29:40.747Z,94923.00
2022-12-09T21:34:14.823Z,94921.00
2022-12-09T21:38:19.204Z,94924.00
2022-12-09T21:42:22.501Z,94932.00
2022-12-09T21:46:27.210Z,94930.00
2022-12-09T21:50:30.353Z,94940.00
2022-12-09T21:54:34.964Z,94937.00
2022-12-09T21:59:12.260Z,94953.00
2022-12-09T22:03:15.257Z,94947.00
2022-12-09T22:07:18.423Z,94953.00
2022-12-09T22:11:25.363Z,94957.00
2022-12-09T22:15:56.213Z,94956.00
2022-12-09T22:20:33.721Z,94957.00
2022-12-09T22:24:22.593Z,94968.00
2022-12-09T22:28:27.145Z,94974.00
2022-12-09T22:32:30.985Z,94981.00
2022-12-09T22:36:36.998Z,94986.00
2022-12-09T22:40:40.179Z,94988.00
2022-12-09T22:44:44.638Z,94972.00
2022-12-09T22:48:48.369Z,94978.00
2022-12-09T22:52:51.681Z,94971.00
2022-12-09T22:56:55.078Z,94966.00
2022-12-09T23:00:59.517Z,94968.00
2022-12-09T23:05:02.569Z,94962.00
2022-12-09T23:09:06.545Z,94953.00
2022-12-09T23:13:09.830Z,94954.00
2022-12-09T23:17:14.268Z,94952.00
2022-12-09T23:21:47.891Z,94949.00
2022-12-09T23:25:53.853Z,94946.00
2022-12-09T23:29:56.872Z,94954.00
2022-12-09T23:34:02.355Z,94949.00
2022-12-09T23:38:05.808Z,94947.00
2022-12-09T23:42:08.866Z,94953.00
2022-12-09T23:46:15.913Z,94946.00
2022-12-09T23:50:20.766Z,94950.00
2022-12-09T23:54:23.856Z,94942.00
2022-12-09T23:58:26.964Z,94948.00
